Time;durP1;ratioP1;P1;durP2;ratioP2;P2;SDS_P1;SDS_P2;PMS_P1;PMS_P2;Temp;Humidity;BMP_temperature;BMP_pressure;BME280_temperature;BME280_humidity;BME280_pressure;Samples;Min_cycle;Max_cycle;Signal;HPM_P1;HPM_P2
2023/08/16 00:00:14;;;;;;;;;;;;;;;;;;4832470;29;21419;-90
2023/08/16 00:02:40;;;;;;;;;;;;;;;;;;4847764;29;19946;-90
2023/08/16 00:05:06;;;;;;;;;;;;;;;;;;4838086;29;19935;-90
2023/08/16 00:07:34;;;;;;;;;;;;;;;;;;4858780;29;20064;-90
2023/08/16 00:10:00;;;;;;;;;;;;;;;;;;4848610;29;19965;-90
2023/08/16 00:12:26;;;;;;;;;;;;;;;;;;4831307;29;20018;-90
2023/08/16 00:14:52;;;;;;;;;;;;;;;;;;4846391;29;20375;-90
2023/08/16 00:17:18;;;;;;;;;;;;;;;;;;4843873;29;19934;-90
2023/08/16 00:19:44;;;;;;;;;;;;;;;;;;4844756;29;19931;-90
2023/08/16 00:22:10;;;;;;;;;;;;;;;;;;4831471;29;19923;-91
2023/08/16 00:24:36;;;;;;;;;;;;;;;;;;4827466;29;20281;-90
2023/08/16 00:27:03;;;;;;;;;;;;;;;;;;4834115;29;19935;-90
2023/08/16 00:29:29;;;;;;;;;;;;;;;;;;4825837;29;19928;-91
2023/08/16 00:31:57;;;;;;;;;;;;;;;;;;4830811;29;19983;-91
2023/08/16 00:34:23;;;;;;;;;;;;;;;;;;4828253;29;19966;-90
2023/08/16 00:36:49;;;;;;;;;;;;;;;;;;4830229;29;20026;-89
2023/08/16 00:39:18;;;;;;;;;;;;;;;;;;4830170;29;19936;-90
2023/08/16 00:41:44;;;;;;;;;;;;;;;;;;4845165;29;20366;-89
2023/08/16 00:44:10;;;;;;;;;;;;;;;;;;4832352;29;19976;-91
2023/08/16 00:46:36;;;;;;;;;;;;;;;;;;4845176;29;19931;-90
2023/08/16 00:49:04;;;;;;;;;;;;;;;;;;4829623;29;19931;-91
2023/08/16 00:51:30;;;;;;;;;;;;;;;;;;4858697;29;20655;-91
2023/08/16 00:53:56;;;;;;;;;;;;;;;;;;4832366;29;20018;-91
2023/08/16 00:56:22;;;;;;;;;;;;;;;;;;4826021;29;19932;-90
2023/08/16 00:58:48;;;;;;;;;;;;;;;;;;4834418;29;19932;-91
2023/08/16 01:01:14;;;;;;;;;;;;;;;;;;4835096;29;20022;-90
2023/08/16 01:03:40;;;;;;;;;;;;;;;;;;4834823;29;19935;-91
2023/08/16 01:06:06;;;;;;;;;;;;;;;;;;4851858;29;19931;-90
2023/08/16 01:08:32;;;;;;;;;;;;;;;;;;4845173;29;20030;-90
2023/08/16 01:10:58;;;;;;;;;;;;;;;;;;4848529;29;19972;-90
2023/08/16 01:13:24;;;;;;;;;;;;;;;;;;4841078;29;19931;-90
2023/08/16 01:15:50;;;;;;;;;;;;;;;;;;4847929;29;19923;-90
2023/08/16 01:18:19;;;;;;;;;;;;;;;;;;4826697;29;20026;-91
2023/08/16 01:20:47;;;;;;;;;;;;;;;;;;4829738;29;19934;-91
2023/08/16 01:23:15;;;;;;;;;;;;;;;;;;4845754;29;19963;-90
2023/08/16 01:25:42;;;;;;;;;;;;;;;;;;4833179;29;19927;-91
2023/08/16 01:28:11;;;;;;;;;;;;;;;;;;4831713;29;19923;-91
2023/08/16 01:30:39;;;;;;;;;;;;;;;;;;4838663;29;19932;-91
2023/08/16 01:33:05;;;;;;;;;;;;;;;;;;4829489;29;19971;-91
2023/08/16 01:35:32;;;;;;;;;;;;;;;;;;4842820;29;19928;-91
2023/08/16 01:37:59;;;;;;;;;;;;;;;;;;4830005;29;19932;-91
2023/08/16 01:40:26;;;;;;;;;;;;;;;;;;4843529;29;19935;-91
2023/08/16 01:42:53;;;;;;;;;;;;;;;;;;4829824;29;19951;-91
2023/08/16 01:45:19;;;;;;;;;;;;;;;;;;4846237;29;19959;-91
2023/08/16 01:47:45;;;;;;;;;;;;;;;;;;4844236;29;20064;-90
2023/08/16 01:50:11;;;;;;;;;;;;;;;;;;4848014;29;19982;-91
2023/08/16 01:52:39;;;;;;;;;;;;;;;;;;4826020;29;19935;-91
2023/08/16 01:55:06;;;;;;;;;;;;;;;;;;4831248;29;19928;-90
2023/08/16 01:57:33;;;;;;;;;;;;;;;;;;4845222;29;20702;-91
2023/08/16 01:59:59;;;;;;;;;;;;;;;;;;4831463;29;20295;-91
2023/08/16 02:02:27;;;;;;;;;;;;;;;;;;4825267;29;19932;-91
2023/08/16 02:04:53;;;;;;;;;;;;;;;;;;4826834;29;19991;-91
2023/08/16 02:07:20;;;;;;;;;;;;;;;;;;4842510;29;19932;-91
2023/08/16 02:09:47;;;;;;;;;;;;;;;;;;4846545;29;19983;-91
2023/08/16 02:12:13;;;;;;;;;;;;;;;;;;4831954;29;19962;-91
2023/08/16 02:14:40;;;;;;;;;;;;;;;;;;4843900;29;19927;-91
2023/08/16 02:17:06;;;;;;;;;;;;;;;;;;4844899;29;20391;-91
2023/08/16 02:19:33;;;;;;;;;;;;;;;;;;4824256;29;19932;-91
2023/08/16 02:21:59;;;;;;;;;;;;;;;;;;4843886;29;19975;-91
2023/08/16 02:24:26;;;;;;;;;;;;;;;;;;4823110;29;20014;-91
2023/08/16 02:26:54;;;;;;;;;;;;;;;;;;4826628;29;19932;-91
2023/08/16 02:29:21;;;;;;;;;;;;;;;;;;4825094;29;20011;-90
2023/08/16 02:31:48;;;;;;;;;;;;;;;;;;4833493;29;19978;-91
2023/08/16 02:34:16;;;;;;;;;;;;;;;;;;4846157;29;19930;-89
2023/08/16 02:36:42;;;;;;;;;;;;;;;;;;4849612;29;20054;-90
2023/08/16 02:39:08;;;;;;;;;;;;;;;;;;4829573;29;19935;-90
2023/08/16 02:41:35;;;;;;;;;;;;;;;;;;4838723;29;21476;-91
2023/08/16 02:44:01;;;;;;;;;;;;;;;;;;4834175;29;20742;-90
2023/08/16 02:46:27;;;;;;;;;;;;;;;;;;4848448;29;19938;-91
2023/08/16 02:48:54;;;;;;;;;;;;;;;;;;4834977;29;19931;-91
2023/08/16 02:51:20;;;;;;;;;;;;;;;;;;4830119;29;19978;-91
2023/08/16 02:53:48;;;;;;;;;;;;;;;;;;4848401;29;19976;-90
2023/08/16 02:56:16;;;;;;;;;;;;;;;;;;4832313;29;20303;-90
2023/08/16 02:58:42;;;;;;;;;;;;;;;;;;4833914;29;19928;-90
2023/08/16 03:01:09;;;;;;;;;;;;;;;;;;4855805;29;20055;-90
2023/08/16 03:03:37;;;;;;;;;;;;;;;;;;4843526;29;19931;-90
2023/08/16 03:06:03;;;;;;;;;;;;;;;;;;4850868;29;20272;-90
2023/08/16 03:08:29;;;;;;;;;;;;;;;;;;4827186;29;19927;-90
2023/08/16 03:10:55;;;;;;;;;;;;;;;;;;4834778;29;20379;-90
2023/08/16 03:13:21;;;;;;;;;;;;;;;;;;4829652;29;19975;-90
2023/08/16 03:15:47;;;;;;;;;;;;;;;;;;4835120;29;19959;-90
2023/08/16 03:18:14;;;;;;;;;;;;;;;;;;4832338;29;19936;-90
2023/08/16 03:20:42;;;;;;;;;;;;;;;;;;4831352;29;19928;-90
2023/08/16 03:23:09;;;;;;;;;;;;;;;;;;4850953;29;19931;-90
2023/08/16 03:25:36;;;;;;;;;;;;;;;;;;4845582;29;19938;-90
2023/08/16 03:28:02;;;;;;;;;;;;;;;;;;4832719;29;20329;-90
2023/08/16 03:30:28;;;;;;;;;;;;;;;;;;4828865;29;19928;-90
2023/08/16 03:33:03;;;;;;;;;;;;;;;;;;4860434;29;20027;-90
2023/08/16 03:35:30;;;;;;;;;;;;;;;;;;4830255;29;20438;-89
2023/08/16 03:37:56;;;;;;;;;;;;;;;;;;4834984;29;20292;-90
2023/08/16 03:40:22;;;;;;;;;;;;;;;;;;4834387;29;20391;-90
2023/08/16 03:42:49;;;;;;;;;;;;;;;;;;4848078;29;19928;-90
2023/08/16 03:45:17;;;;;;;;;;;;;;;;;;4827538;29;20299;-90
2023/08/16 03:47:44;;;;;;;;;;;;;;;;;;4844039;29;19931;-91
2023/08/16 03:50:12;;;;;;;;;;;;;;;;;;4833550;29;20061;-90
2023/08/16 03:52:38;;;;;;;;;;;;;;;;;;4826432;29;19997;-90
2023/08/16 03:55:05;;;;;;;;;;;;;;;;;;4831349;29;20050;-90
2023/08/16 03:57:32;;;;;;;;;;;;;;;;;;4844023;29;20022;-90
2023/08/16 03:59:58;;;;;;;;;;;;;;;;;;4830880;29;19928;-90
2023/08/16 04:02:24;;;;;;;;;;;;;;;;;;4849500;29;19931;-91
2023/08/16 04:04:50;;;;;;;;;;;;;;;;;;4837665;29;19978;-90
2023/08/16 04:07:16;;;;;;;;;;;;;;;;;;4826761;29;19932;-89
2023/08/16 04:09:49;;;;;;;;;;;;;;;;;;4832789;29;19932;-91
2023/08/16 04:12:16;;;;;;;;;;;;;;;;;;4830141;29;19932;-91
2023/08/16 04:14:43;;;;;;;;;;;;;;;;;;4830552;29;19932;-89
2023/08/16 04:17:09;;;;;;;;;;;;;;;;;;4851614;29;20018;-90
2023/08/16 04:19:37;;;;;;;;;;;;;;;;;;4833765;29;20190;-90
2023/08/16 04:22:04;;;;;;;;;;;;;;;;;;4841658;29;20470;-90
2023/08/16 04:24:30;;;;;;;;;;;;;;;;;;4847249;29;19950;-90
2023/08/16 04:26:57;;;;;;;;;;;;;;;;;;4834087;29;20379;-91
2023/08/16 04:29:24;;;;;;;;;;;;;;;;;;4842442;29;20642;-90
2023/08/16 04:31:50;;;;;;;;;;;;;;;;;;4830289;29;19928;-90
2023/08/16 04:34:17;;;;;;;;;;;;;;;;;;4856023;29;19947;-90
2023/08/16 04:36:43;;;;;;;;;;;;;;;;;;4844439;29;20298;-90
2023/08/16 04:39:09;;;;;;;;;;;;;;;;;;4844458;29;19931;-90
2023/08/16 04:41:36;;;;;;;;;;;;;;;;;;4825904;29;19939;-90
2023/08/16 04:44:02;;;;;;;;;;;;;;;;;;4830110;29;19928;-91
2023/08/16 04:46:30;;;;;;;;;;;;;;;;;;4846365;29;19928;-91
2023/08/16 04:48:56;;;;;;;;;;;;;;;;;;4843516;29;19936;-90
2023/08/16 04:51:22;;;;;;;;;;;;;;;;;;4845877;29;19931;-92
2023/08/16 04:53:49;;;;;;;;;;;;;;;;;;4842726;29;19936;-91
2023/08/16 04:56:16;;;;;;;;;;;;;;;;;;4844355;29;20367;-91
2023/08/16 04:58:44;;;;;;;;;;;;;;;;;;4831645;29;19964;-91
2023/08/16 05:01:11;;;;;;;;;;;;;;;;;;4830026;29;19932;-90
2023/08/16 05:03:38;;;;;;;;;;;;;;;;;;4844568;29;19955;-91
2023/08/16 05:06:03;;;;;;;;;;;;;;;;;;4851466;29;19932;-90
2023/08/16 05:08:30;;;;;;;;;;;;;;;;;;4832539;29;19934;-91
2023/08/16 05:10:58;;;;;;;;;;;;;;;;;;4836396;29;19943;-91
2023/08/16 05:13:24;;;;;;;;;;;;;;;;;;4824036;29;19957;-91
2023/08/16 05:15:53;;;;;;;;;;;;;;;;;;4828763;29;19924;-91
2023/08/16 05:18:19;;;;;;;;;;;;;;;;;;4837658;29;19978;-92
2023/08/16 05:20:47;;;;;;;;;;;;;;;;;;4828493;29;19928;-90
2023/08/16 05:23:19;;;;;;;;;;;;;;;;;;4831773;29;19931;-91
2023/08/16 05:25:46;;;;;;;;;;;;;;;;;;4848336;29;20521;-91
2023/08/16 05:28:12;;;;;;;;;;;;;;;;;;4832541;29;19958;-91
2023/08/16 05:30:40;;;;;;;;;;;;;;;;;;4825537;29;20647;-91
2023/08/16 05:33:07;;;;;;;;;;;;;;;;;;4846887;29;20336;-91
2023/08/16 05:35:34;;;;;;;;;;;;;;;;;;4842731;29;19927;-90
2023/08/16 05:38:00;;;;;;;;;;;;;;;;;;4831756;29;19939;-90
2023/08/16 05:40:26;;;;;;;;;;;;;;;;;;4827514;29;19932;-90
2023/08/16 05:42:54;;;;;;;;;;;;;;;;;;4829788;29;20030;-90
2023/08/16 05:45:21;;;;;;;;;;;;;;;;;;4819053;29;20292;-90
2023/08/16 05:47:47;;;;;;;;;;;;;;;;;;4832798;29;19939;-90
2023/08/16 05:50:13;;;;;;;;;;;;;;;;;;4847696;29;20568;-90
2023/08/16 05:52:39;;;;;;;;;;;;;;;;;;4828683;29;19935;-90
2023/08/16 05:55:05;;;;;;;;;;;;;;;;;;4843176;29;19924;-90
2023/08/16 05:57:32;;;;;;;;;;;;;;;;;;4823583;29;20015;-90
2023/08/16 05:59:58;;;;;;;;;;;;;;;;;;4829318;29;20591;-90
2023/08/16 06:02:24;;;;;;;;;;;;;;;;;;4837130;29;19931;-91
2023/08/16 06:04:52;;;;;;;;;;;;;;;;;;4842593;29;19930;-91
2023/08/16 06:07:18;;;;;;;;;;;;;;;;;;4827004;29;20006;-91
2023/08/16 06:09:44;;;;;;;;;;;;;;;;;;4854739;29;20391;-91
2023/08/16 06:12:10;;;;;;;;;;;;;;;;;;4848760;29;19971;-90
2023/08/16 06:14:37;;;;;;;;;;;;;;;;;;4845177;29;19992;-90
2023/08/16 06:17:03;;;;;;;;;;;;;;;;;;4833183;29;19928;-91
2023/08/16 06:19:29;;;;;;;;;;;;;;;;;;4846628;29;19936;-90
2023/08/16 06:21:58;;;;;;;;;;;;;;;;;;4826569;29;19927;-90
2023/08/16 06:24:25;;;;;;;;;;;;;;;;;;4845083;29;19927;-91
2023/08/16 06:26:51;;;;;;;;;;;;;;;;;;4833397;29;19927;-91
2023/08/16 06:29:17;;;;;;;;;;;;;;;;;;4830300;29;19938;-91
2023/08/16 06:31:43;;;;;;;;;;;;;;;;;;4832992;29;19927;-91
2023/08/16 06:34:09;;;;;;;;;;;;;;;;;;4831871;29;19927;-90
2023/08/16 06:36:37;;;;;;;;;;;;;;;;;;4847201;29;20872;-91
2023/08/16 06:39:03;;;;;;;;;;;;;;;;;;4833448;29;19975;-91
2023/08/16 06:41:29;;;;;;;;;;;;;;;;;;4842229;29;20035;-91
2023/08/16 06:43:56;;;;;;;;;;;;;;;;;;4833962;29;19928;-91
2023/08/16 06:46:22;;;;;;;;;;;;;;;;;;4845142;29;19966;-90
2023/08/16 06:48:48;;;;;;;;;;;;;;;;;;4831753;29;20366;-91
2023/08/16 06:51:15;;;;;;;;;;;;;;;;;;4849301;29;20400;-91
2023/08/16 06:53:44;;;;;;;;;;;;;;;;;;4830248;29;19935;-91
2023/08/16 06:56:10;;;;;;;;;;;;;;;;;;4846404;29;20287;-90
2023/08/16 06:58:38;;;;;;;;;;;;;;;;;;4832550;29;19935;-91
2023/08/16 07:01:08;;;;;;;;;;;;;;;;;;4839441;29;19928;-90
2023/08/16 07:03:34;;;;;;;;;;;;;;;;;;4833311;29;20789;-90
2023/08/16 07:06:00;;;;;;;;;;;;;;;;;;4837828;29;19939;-91
2023/08/16 07:08:26;;;;;;;;;;;;;;;;;;4832931;29;19960;-90
2023/08/16 07:10:52;;;;;;;;;;;;;;;;;;4837368;29;19927;-91
2023/08/16 07:13:19;;;;;;;;;;;;;;;;;;4833829;29;19972;-91
2023/08/16 07:15:45;;;;;;;;;;;;;;;;;;4836925;29;20302;-91
2023/08/16 07:18:12;;;;;;;;;;;;;;;;;;4830776;29;19936;-90
2023/08/16 07:20:38;;;;;;;;;;;;;;;;;;4829083;29;19932;-90
2023/08/16 07:23:07;;;;;;;;;;;;;;;;;;4838537;29;19947;-89
2023/08/16 07:25:32;;;;;;;;;;;;;;;;;;4829670;29;19928;-90
2023/08/16 07:27:58;;;;;;;;;;;;;;;;;;4843601;29;19987;-89
2023/08/16 07:30:26;;;;;;;;;;;;;;;;;;4831264;29;20290;-89
2023/08/16 07:32:53;;;;;;;;;;;;;;;;;;4834615;29;19932;-90
2023/08/16 07:35:22;;;;;;;;;;;;;;;;;;4829681;29;19923;-90
2023/08/16 07:37:48;;;;;;;;;;;;;;;;;;4833316;29;19980;-89
2023/08/16 07:40:14;;;;;;;;;;;;;;;;;;4849074;29;19936;-90
2023/08/16 07:42:40;;;;;;;;;;;;;;;;;;4846364;29;19930;-90
2023/08/16 07:45:07;;;;;;;;;;;;;;;;;;4831303;29;19924;-90
2023/08/16 07:47:33;;;;;;;;;;;;;;;;;;4842549;29;19943;-90
2023/08/16 07:50:00;;;;;;;;;;;;;;;;;;4847887;29;20039;-90
2023/08/16 07:52:26;;;;;;;;;;;;;;;;;;4827476;29;19928;-90
2023/08/16 07:54:52;;;;;;;;;;;;;;;;;;4832633;29;19927;-90
2023/08/16 07:57:18;;;;;;;;;;;;;;;;;;4843654;29;21104;-89
2023/08/16 07:59:44;;;;;;;;;;;;;;;;;;4832378;29;19964;-89
2023/08/16 08:02:10;;;;;;;;;;;;;;;;;;4825571;29;19928;-90
2023/08/16 08:04:37;;;;;;;;;;;;;;;;;;4827580;29;19938;-90
2023/08/16 08:07:05;;;;;;;;;;;;;;;;;;4844576;29;20376;-91
2023/08/16 08:09:32;;;;;;;;;;;;;;;;;;4824901;29;19932;-90
2023/08/16 08:12:00;;;;;;;;;;;;;;;;;;4829490;29;20379;-90
2023/08/16 08:14:26;;;;;;;;;;;;;;;;;;4843229;29;20018;-90
2023/08/16 08:16:52;;;;;;;;;;;;;;;;;;4847820;29;20011;-90
2023/08/16 08:19:19;;;;;;;;;;;;;;;;;;4844266;29;20043;-90
2023/08/16 08:21:45;;;;;;;;;;;;;;;;;;4831144;29;20331;-90
2023/08/16 08:24:11;;;;;;;;;;;;;;;;;;4845268;29;19936;-89
2023/08/16 08:26:38;;;;;;;;;;;;;;;;;;4827248;29;19927;-90
2023/08/16 08:29:06;;;;;;;;;;;;;;;;;;4833423;29;20383;-90
2023/08/16 08:31:32;;;;;;;;;;;;;;;;;;4829635;29;20002;-89
2023/08/16 08:33:58;;;;;;;;;;;;;;;;;;4825823;29;20386;-90
2023/08/16 08:36:25;;;;;;;;;;;;;;;;;;4831602;29;20063;-89
2023/08/16 08:38:51;;;;;;;;;;;;;;;;;;4859197;29;20026;-89
2023/08/16 08:41:21;;;;;;;;;;;;;;;;;;4841925;29;19950;-91
2023/08/16 08:43:52;;;;;;;;;;;;;;;;;;4840259;29;20130;-90
2023/08/16 08:46:18;;;;;;;;;;;;;;;;;;4831789;29;19999;-91
2023/08/16 08:48:44;;;;;;;;;;;;;;;;;;4831944;29;19928;-91
2023/08/16 08:51:12;;;;;;;;;;;;;;;;;;4854588;29;19928;-91
2023/08/16 08:53:39;;;;;;;;;;;;;;;;;;4828611;29;20074;-91
2023/08/16 08:56:05;;;;;;;;;;;;;;;;;;4852486;29;19979;-91
2023/08/16 08:58:31;;;;;;;;;;;;;;;;;;4835722;29;19938;-91
2023/08/16 09:00:57;;;;;;;;;;;;;;;;;;4850758;29;19942;-92
2023/08/16 09:03:23;;;;;;;;;;;;;;;;;;4847278;29;19932;-91
2023/08/16 09:05:50;;;;;;;;;;;;;;;;;;4836490;29;20299;-90
2023/08/16 09:08:16;;;;;;;;;;;;;;;;;;4833664;29;19932;-91
2023/08/16 09:10:43;;;;;;;;;;;;;;;;;;4833224;29;19928;-91
2023/08/16 09:13:12;;;;;;;;;;;;;;;;;;4835468;29;19934;-92
2023/08/16 09:15:38;;;;;;;;;;;;;;;;;;4831118;29;19934;-91
2023/08/16 09:18:04;;;;;;;;;;;;;;;;;;4853612;29;19928;-91
2023/08/16 09:20:31;;;;;;;;;;;;;;;;;;4826371;29;19932;-91
2023/08/16 09:22:57;;;;;;;;;;;;;;;;;;4836297;29;20605;-91
2023/08/16 09:25:23;;;;;;;;;;;;;;;;;;4832786;29;19928;-91
2023/08/16 09:27:50;;;;;;;;;;;;;;;;;;4834610;29;20457;-91
2023/08/16 09:30:16;;;;;;;;;;;;;;;;;;4835179;29;19939;-92
2023/08/16 09:32:45;;;;;;;;;;;;;;;;;;4829454;29;20788;-90
2023/08/16 09:35:16;;;;;;;;;;;;;;;;;;4848722;29;19963;-91
2023/08/16 09:37:48;;;;;;;;;;;;;;;;;;4837509;29;20015;-91
2023/08/16 09:40:15;;;;;;;;;;;;;;;;;;4834506;29;20014;-90
2023/08/16 09:42:41;;;;;;;;;;;;;;;;;;4856234;29;19928;-91
2023/08/16 09:45:08;;;;;;;;;;;;;;;;;;4839674;29;19932;-91
2023/08/16 09:47:34;;;;;;;;;;;;;;;;;;4827299;29;20012;-91
2023/08/16 09:50:00;;;;;;;;;;;;;;;;;;4834855;29;19940;-91
2023/08/16 09:52:31;;;;;;;;;;;;;;;;;;4832005;29;19936;-91
2023/08/16 09:54:58;;;;;;;;;;;;;;;;;;4831866;29;19939;-91
2023/08/16 09:57:24;;;;;;;;;;;;;;;;;;4851325;29;19928;-91
2023/08/16 09:59:52;;;;;;;;;;;;;;;;;;4836830;29;19931;-90
2023/08/16 10:02:18;;;;;;;;;;;;;;;;;;4828371;29;19930;-91
2023/08/16 10:04:44;;;;;;;;;;;;;;;;;;4832703;29;19927;-90
2023/08/16 10:07:10;;;;;;;;;;;;;;;;;;4852945;29;19972;-91
2023/08/16 10:09:38;;;;;;;;;;;;;;;;;;4828281;29;19974;-91
2023/08/16 10:12:04;;;;;;;;;;;;;;;;;;4833147;29;19934;-91
2023/08/16 10:14:30;;;;;;;;;;;;;;;;;;4826009;29;19928;-91
2023/08/16 10:16:56;;;;;;;;;;;;;;;;;;4829499;29;20019;-91
2023/08/16 10:19:22;;;;;;;;;;;;;;;;;;4847900;29;20046;-91
2023/08/16 10:21:50;;;;;;;;;;;;;;;;;;4847501;29;19932;-90
2023/08/16 10:24:17;;;;;;;;;;;;;;;;;;4833339;29;20011;-91
2023/08/16 10:26:43;;;;;;;;;;;;;;;;;;4838421;29;19935;-91
2023/08/16 10:29:10;;;;;;;;;;;;;;;;;;4833870;29;19927;-91
2023/08/16 10:31:37;;;;;;;;;;;;;;;;;;4844997;29;19932;-91
2023/08/16 10:34:05;;;;;;;;;;;;;;;;;;4832844;29;19932;-91
2023/08/16 10:36:32;;;;;;;;;;;;;;;;;;4846063;29;19975;-91
2023/08/16 10:38:59;;;;;;;;;;;;;;;;;;4836975;29;19938;-91
2023/08/16 10:41:25;;;;;;;;;;;;;;;;;;4830668;29;19928;-91
2023/08/16 10:43:53;;;;;;;;;;;;;;;;;;4836652;29;19984;-91
2023/08/16 10:46:19;;;;;;;;;;;;;;;;;;4846586;29;19928;-92
2023/08/16 10:48:46;;;;;;;;;;;;;;;;;;4829855;29;19928;-92
2023/08/16 10:51:17;;;;;;;;;;;;;;;;;;4852901;29;20614;-91
2023/08/16 10:53:44;;;;;;;;;;;;;;;;;;4849905;29;19984;-91
2023/08/16 10:56:10;;;;;;;;;;;;;;;;;;4838590;29;19931;-91
2023/08/16 10:58:37;;;;;;;;;;;;;;;;;;4854449;29;20807;-90
2023/08/16 11:01:04;;;;;;;;;;;;;;;;;;4837777;29;20006;-90
2023/08/16 11:03:31;;;;;;;;;;;;;;;;;;4830327;29;19935;-92
2023/08/16 11:05:57;;;;;;;;;;;;;;;;;;4850375;29;19935;-91
2023/08/16 11:08:23;;;;;;;;;;;;;;;;;;4830847;29;19932;-91
2023/08/16 11:10:50;;;;;;;;;;;;;;;;;;4836221;29;20348;-91
2023/08/16 11:13:17;;;;;;;;;;;;;;;;;;4869856;29;19982;-91
2023/08/16 11:15:43;;;;;;;;;;;;;;;;;;4835220;29;19932;-91
2023/08/16 11:18:22;;;;;;;;;;;;;;;;;;;;;
2023/08/16 11:24:10;;;;;;;;;;;;;;;;;;4836376;29;19927;-96
2023/08/16 11:26:36;;;;;;;;;;;;;;;;;;4883368;29;19943;-96
2023/08/16 11:29:02;;;;;;;;;;;;;;;;;;4855712;29;19924;-96
2023/08/16 11:31:28;;;;;;;;;;;;;;;;;;4844094;29;20005;-95
2023/08/16 11:33:55;;;;;;;;;;;;;;;;;;4840282;29;19940;-95
2023/08/16 11:36:24;;;;;;;;;;;;;;;;;;4841489;29;20952;-96
2023/08/16 11:38:53;;;;;;;;;;;;;;;;;;4864181;29;19928;-96
2023/08/16 11:41:25;;;;;;;;;;;;;;;;;;4833914;29;19963;-96
2023/08/16 11:43:54;;;;;;;;;;;;;;;;;;4854549;29;19943;-95
2023/08/16 11:46:20;;;;;;;;;;;;;;;;;;4873615;29;20013;-96
2023/08/16 11:48:51;;;;;;;;;;;;;;;;;;4857129;29;19949;-96
2023/08/16 11:51:19;;;;;;;;;;;;;;;;;;4852036;29;19928;-96
2023/08/16 11:53:45;;;;;;;;;;;;;;;;;;4846492;29;19936;-96
2023/08/16 11:56:12;;;;;;;;;;;;;;;;;;4835884;29;19941;-96
2023/08/16 11:58:39;;;;;;;;;;;;;;;;;;4809231;29;19937;-96
2023/08/16 12:01:11;;;;;;;;;;;;;;;;;;4829751;29;19968;-96
2023/08/16 12:03:42;;;;;;;;;;;;;;;;;;4810994;29;19943;-96
2023/08/16 12:08:54;;;;;;;;;;;;;;;;;;5389545;23;19936;-87
2023/08/16 12:11:20;;;;;;;;;;;;;;;;;;4874611;29;20294;-88
2023/08/16 12:13:45;;;;;;;;;;;;;;;;;;4877891;29;19939;-88
2023/08/16 12:16:11;;;;;;;;;;;;;;;;;;4877897;29;19934;-88
2023/08/16 12:18:37;;;;;;;;;;;;;;;;;;4841207;29;19942;-88
2023/08/16 12:21:03;;;;;;;;;;;;;;;;;;4879917;29;19928;-88
2023/08/16 12:23:29;;;;;;;;;;;;;;;;;;4857862;29;19967;-88
2023/08/16 12:25:56;;;;;;;;;;;;;;;;;;4860315;29;20015;-88
2023/08/16 12:28:22;;;;;;;;;;;;;;;;;;4855483;29;19932;-88
2023/08/16 12:30:48;;;;;;;;;;;;;;;;;;4878877;29;19990;-88
2023/08/16 12:33:16;;;;;;;;;;;;;;;;;;4852828;29;20544;-88
2023/08/16 12:35:41;;;;;;;;;;;;;;;;;;4858961;29;19938;-88
2023/08/16 12:38:07;;;;;;;;;;;;;;;;;;4845645;29;19935;-88
2023/08/16 12:40:33;;;;;;;;;;;;;;;;;;4872251;29;20692;-88
2023/08/16 12:43:01;;;;;;;;;;;;;;;;;;4844869;29;19924;-88
2023/08/16 12:45:27;;;;;;;;;;;;;;;;;;4875556;29;19999;-88
2023/08/16 12:47:54;;;;;;;;;;;;;;;;;;4842810;29;20771;-88
2023/08/16 12:50:19;;;;;;;;;;;;;;;;;;4838946;29;19931;-88
2023/08/16 12:52:45;;;;;;;;;;;;;;;;;;4858815;29;19931;-88
2023/08/16 12:55:11;;;;;;;;;;;;;;;;;;4845612;29;19927;-88
2023/08/16 12:57:37;;;;;;;;;;;;;;;;;;4853162;29;19938;-88
2023/08/16 13:00:03;;;;;;;;;;;;;;;;;;4855002;29;19927;-89
2023/08/16 13:02:29;;;;;;;;;;;;;;;;;;4852848;29;19927;-88
2023/08/16 13:04:55;;;;;;;;;;;;;;;;;;4850582;29;19982;-89
2023/08/16 13:07:21;;;;;;;;;;;;;;;;;;4843572;29;19924;-84
2023/08/16 13:09:47;;;;;;;;;;;;;;;;;;4864506;29;20379;-89
2023/08/16 13:12:13;;;;;;;;;;;;;;;;;;4885757;29;20398;-88
2023/08/16 13:14:39;;;;;;;;;;;;;;;;;;4863011;29;19951;-89
2023/08/16 13:17:08;;;;;;;;;;;;;;;;;;4857587;29;19927;-89
2023/08/16 13:19:33;;;;;;;;;;;;;;;;;;4839569;29;21932;-89
2023/08/16 13:21:59;;;;;;;;;;;;;;;;;;4867071;29;19934;-87
2023/08/16 13:24:25;;;;;;;;;;;;;;;;;;4862991;29;19927;-87
2023/08/16 13:26:51;;;;;;;;;;;;;;;;;;4877155;29;19976;-88
2023/08/16 13:29:17;;;;;;;;;;;;;;;;;;4874040;29;19927;-87
2023/08/16 13:31:43;;;;;;;;;;;;;;;;;;4879846;29;19927;-87
2023/08/16 13:34:09;;;;;;;;;;;;;;;;;;4871810;29;20329;-87
2023/08/16 13:36:35;;;;;;;;;;;;;;;;;;4857074;29;19974;-87
2023/08/16 13:39:01;;;;;;;;;;;;;;;;;;4863898;29;19939;-88
2023/08/16 13:41:27;;;;;;;;;;;;;;;;;;4874984;29;19923;-87
2023/08/16 13:43:53;;;;;;;;;;;;;;;;;;4878641;29;20033;-88
2023/08/16 13:46:19;;;;;;;;;;;;;;;;;;4874957;29;20515;-88
2023/08/16 13:48:45;;;;;;;;;;;;;;;;;;4878162;29;20294;-88
2023/08/16 13:51:11;;;;;;;;;;;;;;;;;;4878726;29;19928;-88
2023/08/16 13:53:37;;;;;;;;;;;;;;;;;;4857197;29;19935;-88
2023/08/16 13:56:04;;;;;;;;;;;;;;;;;;4847060;29;19928;-88
2023/08/16 13:58:30;;;;;;;;;;;;;;;;;;4861323;29;19967;-88
2023/08/16 14:00:55;;;;;;;;;;;;;;;;;;4863680;29;20399;-89
2023/08/16 14:03:21;;;;;;;;;;;;;;;;;;4833772;29;19931;-87
2023/08/16 14:05:47;;;;;;;;;;;;;;;;;;4858278;29;19923;-87
2023/08/16 14:08:13;;;;;;;;;;;;;;;;;;4847694;29;19946;-88
2023/08/16 14:10:40;;;;;;;;;;;;;;;;;;4848218;29;19923;-88
2023/08/16 14:13:06;;;;;;;;;;;;;;;;;;4865975;29;20743;-88
2023/08/16 14:15:32;;;;;;;;;;;;;;;;;;4870828;29;19997;-88
2023/08/16 14:17:58;;;;;;;;;;;;;;;;;;4855852;29;19938;-88
2023/08/16 14:20:24;;;;;;;;;;;;;;;;;;4864429;29;19932;-88
2023/08/16 14:22:50;;;;;;;;;;;;;;;;;;4854857;29;19933;-88
2023/08/16 14:25:16;;;;;;;;;;;;;;;;;;4849159;29;20973;-88
2023/08/16 14:27:42;;;;;;;;;;;;;;;;;;4866301;29;19930;-88
2023/08/16 14:30:08;;;;;;;;;;;;;;;;;;4851169;29;19942;-88
2023/08/16 14:32:34;;;;;;;;;;;;;;;;;;4855251;29;24280;-88
2023/08/16 14:35:00;;;;;;;;;;;;;;;;;;4876152;29;19938;-88
2023/08/16 14:37:25;;;;;;;;;;;;;;;;;;4845051;29;19932;-88
2023/08/16 14:39:51;;;;;;;;;;;;;;;;;;4851491;29;19942;-88
2023/08/16 14:42:19;;;;;;;;;;;;;;;;;;4858115;29;20342;-87
2023/08/16 14:44:45;;;;;;;;;;;;;;;;;;4858150;29;19970;-88
2023/08/16 14:47:11;;;;;;;;;;;;;;;;;;4877186;29;19927;-88
2023/08/16 14:49:37;;;;;;;;;;;;;;;;;;4848551;29;20387;-88
2023/08/16 14:52:03;;;;;;;;;;;;;;;;;;4844116;29;19933;-88
2023/08/16 14:54:29;;;;;;;;;;;;;;;;;;4852595;29;19998;-88
2023/08/16 14:56:55;;;;;;;;;;;;;;;;;;4874510;29;21235;-88
2023/08/16 14:59:21;;;;;;;;;;;;;;;;;;4851537;29;19978;-88
2023/08/16 15:01:47;;;;;;;;;;;;;;;;;;4878778;29;19965;-88
2023/08/16 15:04:13;;;;;;;;;;;;;;;;;;4875636;29;20059;-88
2023/08/16 15:06:38;;;;;;;;;;;;;;;;;;4855630;29;20383;-88
2023/08/16 15:09:04;;;;;;;;;;;;;;;;;;4864449;29;19954;-88
2023/08/16 15:11:30;;;;;;;;;;;;;;;;;;4871171;29;20021;-87
2023/08/16 15:13:56;;;;;;;;;;;;;;;;;;4850898;29;19932;-87
2023/08/16 15:16:22;;;;;;;;;;;;;;;;;;4848447;29;19938;-87
2023/08/16 15:18:48;;;;;;;;;;;;;;;;;;4860065;29;19963;-87
2023/08/16 15:21:14;;;;;;;;;;;;;;;;;;4853965;29;20387;-87
2023/08/16 15:23:40;;;;;;;;;;;;;;;;;;4856392;29;20311;-88
2023/08/16 15:26:06;;;;;;;;;;;;;;;;;;4877126;29;19931;-87
2023/08/16 15:28:32;;;;;;;;;;;;;;;;;;4870751;29;19927;-87
2023/08/16 15:30:58;;;;;;;;;;;;;;;;;;4869057;29;19932;-88
2023/08/16 15:33:24;;;;;;;;;;;;;;;;;;4867430;29;19951;-88
2023/08/16 15:35:50;;;;;;;;;;;;;;;;;;4877824;29;20295;-87
2023/08/16 15:38:16;;;;;;;;;;;;;;;;;;4868335;29;19935;-87
2023/08/16 15:40:42;;;;;;;;;;;;;;;;;;4859426;29;20869;-87
2023/08/16 15:43:08;;;;;;;;;;;;;;;;;;4858821;29;20018;-87
2023/08/16 15:45:34;;;;;;;;;;;;;;;;;;4849315;29;20655;-87
2023/08/16 15:48:00;;;;;;;;;;;;;;;;;;4875539;29;19938;-87
2023/08/16 15:50:26;;;;;;;;;;;;;;;;;;4857419;29;19931;-87
2023/08/16 15:52:52;;;;;;;;;;;;;;;;;;4871980;29;20059;-88
2023/08/16 15:55:18;;;;;;;;;;;;;;;;;;4850167;29;19978;-88
2023/08/16 15:57:44;;;;;;;;;;;;;;;;;;4874482;29;20045;-88
2023/08/16 16:00:10;;;;;;;;;;;;;;;;;;4872530;29;19939;-88
2023/08/16 16:02:36;;;;;;;;;;;;;;;;;;4870573;29;20659;-87
2023/08/16 16:05:02;;;;;;;;;;;;;;;;;;4859678;29;19934;-88
2023/08/16 16:07:29;;;;;;;;;;;;;;;;;;4838926;29;19931;-87
2023/08/16 16:09:55;;;;;;;;;;;;;;;;;;4876105;29;19931;-87
2023/08/16 16:12:21;;;;;;;;;;;;;;;;;;4847916;29;19938;-87
2023/08/16 16:14:47;;;;;;;;;;;;;;;;;;4840770;29;20334;-87
2023/08/16 16:17:13;;;;;;;;;;;;;;;;;;4879854;29;20580;-88
2023/08/16 16:19:39;;;;;;;;;;;;;;;;;;4865213;29;19932;-89
2023/08/16 16:22:05;;;;;;;;;;;;;;;;;;4849987;29;19950;-88
2023/08/16 16:24:31;;;;;;;;;;;;;;;;;;4851039;29;19927;-87
2023/08/16 16:26:57;;;;;;;;;;;;;;;;;;4874112;29;19932;-88
2023/08/16 16:29:23;;;;;;;;;;;;;;;;;;4865027;29;19933;-88
2023/08/16 16:31:51;;;;;;;;;;;;;;;;;;4868707;29;19936;-88
2023/08/16 16:34:17;;;;;;;;;;;;;;;;;;4864150;29;21405;-87
2023/08/16 16:36:43;;;;;;;;;;;;;;;;;;4878856;29;19927;-88
2023/08/16 16:39:09;;;;;;;;;;;;;;;;;;4867501;29;20022;-88
2023/08/16 16:41:35;;;;;;;;;;;;;;;;;;4873349;29;20386;-88
2023/08/16 16:44:01;;;;;;;;;;;;;;;;;;4873538;29;19928;-87
2023/08/16 16:46:27;;;;;;;;;;;;;;;;;;4869784;29;19931;-87